createdAt,value
2019-03-01T00:00:28.964Z,69.43
2019-03-01T00:02:56.756Z,68.00
2019-03-01T00:05:28.796Z,73.03
2019-03-01T00:08:06.951Z,73.67
2019-03-01T00:10:45.173Z,72.17
2019-03-01T00:13:14.389Z,79.00
2019-03-01T00:15:49.812Z,76.40
2019-03-01T00:18:25.009Z,73.43
2019-03-01T00:20:54.201Z,77.23
2019-03-01T00:23:32.721Z,74.10
2019-03-01T00:26:02.013Z,80.83
2019-03-01T00:28:34.289Z,72.77
2019-03-01T00:31:06.456Z,73.03
2019-03-01T00:33:41.412Z,71.70
2019-03-01T00:36:10.796Z,76.43
2019-03-01T00:38:43.068Z,64.27
2019-03-01T00:41:12.253Z,66.77
2019-03-01T00:43:50.589Z,72.10
2019-03-01T00:46:18.449Z,65.47
2019-03-01T00:48:46.421Z,66.93
2019-03-01T00:51:14.190Z,70.97
2019-03-01T00:53:41.944Z,70.97
2019-03-01T00:56:09.926Z,67.77
2019-03-01T00:58:37.699Z,69.97
2019-03-01T01:01:05.453Z,68.70
2019-03-01T01:03:33.537Z,67.63
2019-03-01T01:06:01.399Z,75.10
2019-03-01T01:08:29.164Z,67.77
2019-03-01T01:10:57.033Z,67.50
2019-03-01T01:13:24.845Z,70.17
2019-03-01T01:15:52.662Z,68.50
2019-03-01T01:18:20.312Z,74.83
2019-03-01T01:20:48.198Z,78.73
2019-03-01T01:23:15.970Z,72.43
2019-03-01T01:25:43.729Z,71.93
2019-03-01T01:28:11.594Z,74.93
2019-03-01T01:30:39.347Z,68.87
2019-03-01T01:33:07.112Z,75.70
2019-03-01T01:35:34.893Z,70.20
2019-03-01T01:38:02.766Z,79.30
2019-03-01T01:40:30.634Z,71.37
2019-03-01T01:42:58.296Z,77.43
2019-03-01T01:45:26.163Z,72.73
2019-03-01T01:47:53.886Z,78.53
2019-03-01T01:50:21.688Z,75.50
2019-03-01T01:52:49.460Z,82.03
2019-03-01T01:55:17.228Z,82.60
2019-03-01T01:57:44.958Z,74.57
2019-03-01T02:00:13.242Z,86.23
2019-03-01T02:02:41.021Z,82.43
2019-03-01T02:05:08.901Z,80.20
2019-03-01T02:07:36.671Z,88.40
2019-03-01T02:10:06.684Z,74.60
2019-03-01T02:12:34.453Z,88.00
2019-03-01T02:15:02.324Z,80.57
2019-03-01T02:17:29.968Z,75.83
2019-03-01T02:19:57.632Z,79.77
2019-03-01T02:22:25.413Z,84.57
2019-03-01T02:24:53.060Z,77.17
2019-03-01T02:27:22.481Z,85.07
2019-03-01T02:29:50.175Z,84.03
2019-03-01T02:32:31.725Z,80.97
2019-03-01T02:34:59.506Z,91.83
2019-03-01T02:37:27.196Z,79.17
2019-03-01T02:39:54.933Z,76.00
2019-03-01T02:42:22.799Z,75.07
2019-03-01T02:44:50.686Z,80.73
2019-03-01T02:47:18.535Z,79.97
2019-03-01T02:49:46.301Z,74.57
2019-03-01T02:52:14.062Z,71.07
2019-03-01T02:54:42.042Z,72.87
2019-03-01T02:57:09.915Z,72.33
2019-03-01T02:59:37.781Z,68.47
2019-03-01T03:02:05.434Z,62.83
2019-03-01T03:04:33.103Z,70.93
2019-03-01T03:07:04.860Z,72.37
2019-03-01T03:09:32.661Z,73.30
2019-03-01T03:12:00.505Z,71.80
2019-03-01T03:14:28.472Z,70.73
2019-03-01T03:16:56.333Z,70.40
2019-03-01T03:19:24.209Z,74.37
2019-03-01T03:21:51.952Z,72.83
2019-03-01T03:24:19.753Z,73.50
2019-03-01T03:26:48.545Z,66.50
2019-03-01T03:29:16.480Z,66.30
2019-03-01T03:31:44.189Z,75.97
2019-03-01T03:34:11.923Z,70.20
2019-03-01T03:36:39.900Z,65.47
2019-03-01T03:39:09.113Z,76.07
2019-03-01T03:41:37.174Z,74.70
2019-03-01T03:44:05.566Z,66.60
2019-03-01T03:46:33.299Z,66.37
2019-03-01T03:49:01.090Z,80.17
2019-03-01T03:51:28.858Z,71.97
2019-03-01T03:53:56.490Z,72.93
2019-03-01T03:56:24.277Z,75.40
2019-03-01T03:58:52.195Z,75.90
2019-03-01T04:01:20.022Z,69.50
2019-03-01T04:03:47.776Z,78.80
2019-03-01T04:06:15.550Z,69.10
2019-03-01T04:08:43.217Z,75.57
2019-03-01T04:11:10.974Z,85.37
2019-03-01T04:13:38.745Z,70.67
2019-03-01T04:16:06.604Z,78.63
2019-03-01T04:18:34.258Z,74.53
2019-03-01T04:21:02.029Z,76.80
2019-03-01T04:23:29.814Z,72.47
2019-03-01T04:25:57.452Z,66.63
2019-03-01T04:28:25.435Z,71.20
2019-03-01T04:30:53.302Z,74.17
2019-03-01T04:33:21.068Z,76.17
2019-03-01T04:35:48.942Z,74.90
2019-03-01T04:38:16.696Z,82.00
2019-03-01T04:40:44.464Z,70.60
2019-03-01T04:43:12.119Z,72.33
2019-03-01T04:45:40.012Z,73.10
2019-03-01T04:48:07.752Z,70.90
2019-03-01T04:50:35.546Z,69.07
2019-03-01T04:53:03.406Z,72.90
2019-03-01T04:55:31.060Z,70.47
2019-03-01T04:57:58.829Z,79.87
2019-03-01T05:00:26.599Z,81.23
2019-03-01T05:02:54.447Z,82.33
2019-03-01T05:05:22.241Z,90.00
2019-03-01T05:07:49.879Z,83.70
2019-03-01T05:10:17.657Z,80.27
2019-03-01T05:12:45.424Z,89.00
2019-03-01T05:15:14.659Z,98.53
2019-03-01T05:17:42.606Z,76.17
2019-03-01T05:20:10.405Z,83.97
2019-03-01T05:22:38.128Z,83.23
2019-03-01T05:25:07.122Z,76.70
2019-03-01T05:27:34.873Z,71.13
2019-03-01T05:30:02.765Z,67.23
2019-03-01T05:32:30.521Z,66.53
2019-03-01T05:34:58.390Z,89.47
2019-03-01T05:37:26.166Z,78.07
2019-03-01T05:39:53.881Z,76.97
2019-03-01T05:42:21.598Z,73.20
2019-03-01T05:44:49.337Z,65.90
2019-03-01T05:47:17.117Z,79.50
2019-03-01T05:49:44.991Z,72.93
2019-03-01T05:52:12.645Z,68.70
2019-03-01T05:54:40.409Z,66.93
2019-03-01T05:57:08.180Z,79.53
2019-03-01T05:59:35.968Z,100.80
2019-03-01T06:02:14.379Z,97.70
2019-03-01T06:04:43.676Z,85.90
2019-03-01T06:07:19.116Z,102.67
2019-03-01T06:09:51.069Z,95.10
2019-03-01T06:12:36.749Z,90.40
2019-03-01T06:15:22.962Z,85.93
2019-03-01T06:18:08.953Z,84.57
2019-03-01T06:20:40.959Z,94.90
2019-03-01T06:23:10.219Z,79.90
2019-03-01T06:25:39.537Z,79.07
2019-03-01T06:28:17.727Z,80.30
2019-03-01T06:31:03.820Z,85.10
2019-03-01T06:33:33.027Z,85.40
2019-03-01T06:36:02.201Z,88.00
2019-03-01T06:38:36.143Z,90.03
2019-03-01T06:41:22.031Z,79.73
2019-03-01T06:44:06.382Z,80.33
2019-03-01T06:46:35.569Z,80.23
2019-03-01T06:49:04.991Z,80.00
2019-03-01T06:51:32.654Z,74.97
2019-03-01T06:54:00.423Z,79.30
2019-03-01T06:56:28.184Z,79.10
2019-03-01T06:58:56.161Z,78.07
2019-03-01T07:01:24.628Z,72.67
2019-03-01T07:03:53.511Z,69.37
2019-03-01T07:06:21.293Z,62.83
2019-03-01T07:08:48.978Z,67.93
2019-03-01T07:11:16.928Z,59.67
2019-03-01T07:13:44.904Z,68.47
2019-03-01T07:16:12.665Z,60.33
2019-03-01T07:18:40.442Z,56.37
2019-03-01T07:21:08.302Z,56.27
2019-03-01T07:23:37.058Z,58.07
2019-03-01T07:26:05.565Z,61.08
2019-03-01T07:28:33.346Z,52.03
2019-03-01T07:31:01.114Z,57.57
2019-03-01T07:33:28.976Z,76.13
2019-03-01T07:35:56.719Z,71.37
2019-03-01T07:38:24.364Z,70.87
2019-03-01T07:40:52.052Z,75.13
2019-03-01T07:43:19.841Z,55.83
2019-03-01T07:45:47.595Z,50.23
2019-03-01T07:48:15.448Z,57.63
2019-03-01T07:50:43.225Z,53.67
2019-03-01T07:53:10.893Z,60.77
2019-03-01T07:55:38.648Z,55.90
2019-03-01T07:58:06.634Z,63.93
2019-03-01T08:00:34.503Z,54.90
2019-03-01T08:03:02.352Z,61.90
2019-03-01T08:05:30.141Z,58.30
2019-03-01T08:08:02.602Z,58.73
2019-03-01T08:10:27.305Z,64.33
2019-03-01T08:12:55.170Z,59.13
2019-03-01T08:15:23.141Z,61.47
2019-03-01T08:17:50.905Z,58.80
2019-03-01T08:20:19.088Z,52.80
2019-03-01T08:22:48.859Z,61.27
2019-03-01T08:25:22.701Z,57.37
2019-03-01T08:27:46.288Z,57.60
2019-03-01T08:30:16.494Z,57.53
2019-03-01T08:32:44.465Z,62.40
2019-03-01T08:35:13.157Z,55.67
2019-03-01T08:37:40.920Z,63.90
2019-03-01T08:40:15.956Z,59.90
2019-03-01T08:42:43.824Z,51.97
2019-03-01T08:45:15.392Z,60.47
2019-03-01T08:47:43.127Z,61.43
2019-03-01T08:50:12.445Z,54.03
2019-03-01T08:52:40.580Z,59.27
2019-03-01T08:55:10.445Z,61.17
2019-03-01T08:57:44.264Z,56.30
2019-03-01T09:00:11.809Z,60.33
2019-03-01T09:02:39.582Z,58.73
2019-03-01T09:05:09.920Z,59.73
2019-03-01T09:07:37.869Z,61.83
2019-03-01T09:10:07.477Z,57.40
2019-03-01T09:12:35.354Z,62.10
2019-03-01T09:15:04.564Z,57.90
2019-03-01T09:17:32.519Z,56.67
2019-03-01T09:20:01.159Z,57.37
2019-03-01T09:22:29.251Z,62.17
2019-03-01T09:24:56.924Z,54.63
2019-03-01T09:27:26.842Z,59.40
2019-03-01T09:29:56.136Z,54.00
2019-03-01T09:32:23.385Z,68.30
2019-03-01T09:34:52.817Z,58.23
2019-03-01T09:37:20.682Z,60.40
2019-03-01T09:39:50.437Z,57.80
2019-03-01T09:42:17.852Z,66.13
2019-03-01T09:44:45.707Z,58.33
2019-03-01T09:47:13.494Z,60.70
2019-03-01T09:49:41.189Z,58.67
2019-03-01T09:52:08.887Z,60.23
2019-03-01T09:54:36.532Z,56.30
2019-03-01T09:57:04.346Z,57.73
2019-03-01T09:59:32.096Z,64.33
2019-03-01T10:01:59.985Z,67.03
2019-03-01T10:04:27.853Z,60.63
2019-03-01T10:06:55.578Z,59.40
2019-03-01T10:09:23.312Z,70.23
2019-03-01T10:11:51.663Z,64.57
2019-03-01T10:14:20.400Z,58.37
2019-03-01T10:16:49.747Z,72.53
2019-03-01T10:19:17.416Z,68.33
2019-03-01T10:21:45.163Z,63.53
2019-03-01T10:24:12.932Z,65.17
2019-03-01T10:26:40.712Z,61.70
2019-03-01T10:29:08.378Z,64.13
2019-03-01T10:31:36.176Z,62.10
2019-03-01T10:34:04.111Z,70.57
2019-03-01T10:36:31.874Z,70.30
2019-03-01T10:38:59.653Z,69.67
2019-03-01T10:41:27.409Z,70.40
2019-03-01T10:43:55.107Z,69.37
2019-03-01T10:46:22.842Z,67.17
2019-03-01T10:48:50.490Z,72.63
2019-03-01T10:51:18.216Z,69.63
2019-03-01T10:53:47.822Z,67.70
2019-03-01T10:56:16.398Z,72.40
2019-03-01T10:58:44.124Z,66.67
2019-03-01T11:01:11.988Z,61.87
2019-03-01T11:03:39.656Z,63.53
2019-03-01T11:06:07.530Z,65.80
2019-03-01T11:08:35.257Z,70.97
2019-03-01T11:11:03.160Z,65.90
2019-03-01T11:13:31.029Z,68.90
2019-03-01T11:15:58.755Z,65.97
2019-03-01T11:18:26.667Z,82.60
2019-03-01T11:20:54.400Z,71.20
2019-03-01T11:23:22.205Z,71.50
2019-03-01T11:25:49.960Z,76.37
2019-03-01T11:28:17.720Z,68.93
2019-03-01T11:30:45.505Z,76.23
2019-03-01T11:33:13.360Z,78.60
2019-03-01T11:35:41.233Z,74.33
2019-03-01T11:38:09.001Z,80.00
2019-03-01T11:40:38.206Z,71.20
2019-03-01T11:43:06.164Z,67.87
2019-03-01T11:45:34.136Z,85.80
2019-03-01T11:48:01.910Z,86.80
2019-03-01T11:50:29.777Z,66.30
2019-03-01T11:52:57.906Z,62.97
2019-03-01T11:55:25.568Z,62.63
2019-03-01T11:57:53.299Z,66.90
2019-03-01T12:00:21.773Z,76.63
2019-03-01T12:02:49.731Z,74.03
2019-03-01T12:05:17.593Z,69.37
2019-03-01T12:07:45.345Z,69.47
2019-03-01T12:10:17.421Z,82.03
2019-03-01T12:12:45.299Z,74.20
2019-03-01T12:15:13.275Z,78.17
2019-03-01T12:17:41.023Z,75.97
2019-03-01T12:20:13.307Z,77.50
2019-03-01T12:22:41.069Z,75.17
2019-03-01T12:25:10.508Z,78.13
2019-03-01T12:27:38.344Z,79.20
2019-03-01T12:30:19.318Z,76.30
2019-03-01T12:32:47.189Z,77.73
2019-03-01T12:35:14.957Z,73.50
2019-03-01T12:37:42.928Z,77.13
2019-03-01T12:40:26.769Z,78.87
2019-03-01T12:42:54.633Z,76.20
2019-03-01T12:45:22.408Z,76.23
2019-03-01T12:47:50.133Z,75.07
2019-03-01T12:50:17.814Z,80.30
2019-03-01T12:52:45.799Z,73.80
2019-03-01T12:55:27.162Z,76.17
2019-03-01T12:57:55.065Z,82.00
2019-03-01T13:00:23.827Z,76.70
2019-03-01T13:02:51.471Z,76.10
2019-03-01T13:05:19.255Z,87.20
2019-03-01T13:07:46.924Z,109.27
2019-03-01T13:10:16.140Z,80.13
2019-03-01T13:12:43.900Z,91.00
2019-03-01T13:15:13.885Z,81.00
2019-03-01T13:17:41.680Z,87.73
2019-03-01T13:20:10.893Z,72.93
2019-03-01T13:22:38.656Z,81.50
2019-03-01T13:25:07.283Z,86.57
2019-03-01T13:27:35.001Z,92.70
2019-03-01T13:30:02.882Z,95.13
2019-03-01T13:32:30.636Z,79.30
2019-03-01T13:34:58.510Z,79.27
2019-03-01T13:37:26.384Z,84.83
2019-03-01T13:39:54.138Z,81.60
2019-03-01T13:42:21.904Z,84.00
2019-03-01T13:44:49.778Z,84.17
2019-03-01T13:47:17.647Z,88.13
2019-03-01T13:49:45.393Z,86.00
2019-03-01T13:52:14.740Z,87.20
2019-03-01T13:54:45.291Z,111.03
2019-03-01T13:57:12.379Z,209.63
2019-03-01T13:59:42.999Z,106.13
2019-03-01T14:02:09.777Z,110.13
2019-03-01T14:04:40.259Z,99.10
2019-03-01T14:07:08.592Z,103.13
2019-03-01T14:09:36.352Z,109.53
2019-03-01T14:12:04.208Z,97.43
2019-03-01T14:14:32.082Z,95.57
2019-03-01T14:16:59.945Z,95.30
2019-03-01T14:19:27.709Z,91.50
2019-03-01T14:21:55.477Z,93.10
2019-03-01T14:24:25.940Z,95.97
2019-03-01T14:26:53.924Z,97.30
2019-03-01T14:29:22.049Z,101.90
2019-03-01T14:31:49.821Z,101.70
2019-03-01T14:34:17.593Z,96.50
2019-03-01T14:36:45.349Z,100.63
2019-03-01T14:39:14.570Z,97.87
2019-03-01T14:41:42.430Z,98.03
2019-03-01T14:44:10.177Z,104.53
2019-03-01T14:46:37.807Z,104.23
2019-03-01T14:49:05.715Z,101.33
2019-03-01T14:51:33.497Z,103.53
2019-03-01T14:54:01.246Z,99.13
2019-03-01T14:56:31.227Z,108.50
2019-03-01T14:59:04.054Z,103.97
2019-03-01T15:01:35.999Z,102.63
2019-03-01T15:04:03.888Z,108.60
2019-03-01T15:06:31.646Z,103.50
2019-03-01T15:08:59.320Z,112.57
2019-03-01T15:11:27.185Z,113.60
2019-03-01T15:13:54.943Z,114.53
2019-03-01T15:16:22.606Z,119.80
2019-03-01T15:18:50.480Z,126.03
2019-03-01T15:21:18.160Z,117.00
2019-03-01T15:23:45.922Z,108.47
2019-03-01T15:26:13.781Z,121.73
2019-03-01T15:28:45.949Z,111.20
2019-03-01T15:31:13.696Z,112.27
2019-03-01T15:33:46.501Z,110.57
2019-03-01T15:36:13.711Z,101.20
2019-03-01T15:38:40.113Z,92.50
2019-03-01T15:41:07.799Z,114.67
2019-03-01T15:43:35.495Z,104.20
2019-03-01T15:46:03.275Z,106.37
2019-03-01T15:48:30.928Z,108.07
2019-03-01T15:50:59.021Z,104.63
2019-03-01T15:53:28.225Z,111.13
2019-03-01T15:55:55.978Z,106.30
2019-03-01T15:58:23.627Z,119.50
2019-03-01T16:00:51.407Z,112.07
2019-03-01T16:03:19.286Z,105.57
2019-03-01T16:05:48.899Z,114.27
2019-03-01T16:08:16.602Z,103.37
2019-03-01T16:10:44.404Z,103.53
2019-03-01T16:13:13.257Z,124.23
2019-03-01T16:15:41.164Z,100.30
2019-03-01T16:18:08.949Z,108.90
2019-03-01T16:20:36.710Z,90.57
2019-03-01T16:23:04.577Z,102.27
2019-03-01T16:25:32.341Z,94.03
2019-03-01T16:27:59.982Z,92.47
2019-03-01T16:30:27.880Z,104.00
2019-03-01T16:32:55.637Z,229.73
2019-03-01T16:35:23.280Z,235.10
2019-03-01T16:37:57.842Z,123.67
2019-03-01T16:40:24.877Z,100.80
2019-03-01T16:42:54.364Z,260.53
2019-03-01T16:45:22.026Z,129.80
2019-03-01T16:47:49.708Z,105.97
2019-03-01T16:50:17.994Z,91.03
2019-03-01T16:52:45.863Z,84.37
2019-03-01T16:55:18.038Z,82.20
2019-03-01T16:57:48.615Z,67.57
2019-03-01T17:00:19.378Z,73.03
2019-03-01T17:02:48.697Z,63.47
2019-03-01T17:05:16.771Z,63.13
2019-03-01T17:07:44.623Z,59.80
2019-03-01T17:10:13.836Z,56.00
2019-03-01T17:12:41.706Z,58.77
2019-03-01T17:15:13.934Z,60.43
2019-03-01T17:17:40.515Z,63.53
2019-03-01T17:20:09.823Z,44.20
2019-03-01T17:22:37.686Z,47.27
2019-03-01T17:25:06.901Z,52.07
2019-03-01T17:27:36.634Z,52.53
2019-03-01T17:30:05.601Z,60.63
2019-03-01T17:32:34.181Z,59.95
2019-03-01T17:35:04.905Z,69.57
2019-03-01T17:37:32.428Z,129.70
2019-03-01T17:40:00.287Z,96.13
2019-03-01T17:42:28.110Z,97.67
2019-03-01T17:44:55.862Z,105.70
2019-03-01T17:47:23.533Z,92.60
2019-03-01T17:49:51.200Z,78.17
2019-03-01T17:52:19.076Z,74.27
2019-03-01T17:54:46.845Z,56.17
2019-03-01T17:57:14.711Z,112.80
2019-03-01T17:59:44.679Z,68.00
2019-03-01T18:02:14.817Z,82.23
2019-03-01T18:04:41.602Z,70.83
2019-03-01T18:07:09.869Z,71.37
2019-03-01T18:09:37.615Z,81.30
2019-03-01T18:12:08.909Z,65.40
2019-03-01T18:14:37.064Z,74.87
2019-03-01T18:17:05.273Z,73.67
2019-03-01T18:19:33.100Z,73.53
2019-03-01T18:22:00.968Z,112.60
2019-03-01T18:24:28.752Z,135.93
2019-03-01T18:26:56.602Z,138.20
2019-03-01T18:29:24.375Z,235.63
2019-03-01T18:31:52.246Z,166.63
2019-03-01T18:34:20.110Z,115.27
2019-03-01T18:36:47.748Z,82.23
2019-03-01T18:39:15.776Z,79.90
2019-03-01T18:41:43.710Z,62.43
2019-03-01T18:44:11.573Z,67.73
2019-03-01T18:46:39.343Z,71.97
2019-03-01T18:49:07.100Z,64.07
2019-03-01T18:51:34.855Z,69.57
2019-03-01T18:54:04.082Z,66.10
2019-03-01T18:56:32.144Z,68.57
2019-03-01T18:59:00.017Z,58.77
2019-03-01T19:01:28.111Z,67.60
2019-03-01T19:03:55.862Z,67.50
2019-03-01T19:06:23.616Z,69.37
2019-03-01T19:08:51.489Z,69.07
2019-03-01T19:11:19.254Z,66.70
2019-03-01T19:13:47.243Z,69.70
2019-03-01T19:16:14.899Z,71.00
2019-03-01T19:18:42.651Z,68.57
2019-03-01T19:21:10.412Z,67.33
2019-03-01T19:23:38.287Z,78.80
2019-03-01T19:26:05.980Z,62.50
2019-03-01T19:28:33.633Z,64.63
2019-03-01T19:31:02.214Z,70.93
2019-03-01T19:33:30.069Z,63.33
2019-03-01T19:36:00.685Z,67.23
2019-03-01T19:38:29.114Z,67.93
2019-03-01T19:40:57.604Z,69.40
2019-03-01T19:43:25.434Z,55.67
2019-03-01T19:45:53.211Z,63.50
2019-03-01T19:48:21.177Z,58.77
2019-03-01T19:50:48.950Z,65.87
2019-03-01T19:53:16.700Z,119.87
2019-03-01T19:55:47.261Z,192.00
2019-03-01T19:58:13.755Z,314.90
2019-03-01T20:00:42.406Z,240.60
2019-03-01T20:03:11.284Z,457.83
2019-03-01T20:05:40.499Z,497.90
2019-03-01T20:08:08.243Z,634.03
2019-03-01T20:10:36.951Z,314.53
2019-03-01T20:13:05.878Z,390.97
2019-03-01T20:15:33.557Z,119.17
2019-03-01T20:18:01.274Z,78.47
2019-03-01T20:20:29.973Z,183.93
2019-03-01T20:22:58.503Z,174.33
2019-03-01T20:25:26.252Z,107.70
2019-03-01T20:27:54.215Z,170.23
2019-03-01T20:30:30.158Z,165.40
2019-03-01T20:32:55.604Z,167.23
2019-03-01T20:35:25.114Z,87.13
2019-03-01T20:37:52.979Z,68.13
2019-03-01T20:40:22.878Z,94.00
2019-03-01T20:42:50.444Z,204.47
2019-03-01T20:45:19.745Z,253.70
2019-03-01T20:47:50.516Z,141.03
2019-03-01T20:50:17.131Z,185.60
2019-03-01T20:52:44.853Z,196.80
2019-03-01T20:55:12.625Z,238.20
2019-03-01T20:57:40.425Z,131.47
2019-03-01T21:00:10.020Z,84.93
2019-03-01T21:02:37.729Z,96.73
2019-03-01T21:05:06.902Z,84.90
2019-03-01T21:07:34.667Z,104.53
2019-03-01T21:10:02.412Z,78.63
2019-03-01T21:12:30.179Z,69.20
2019-03-01T21:14:58.686Z,68.90
2019-03-01T21:17:27.477Z,72.57
2019-03-01T21:19:55.234Z,97.73
2019-03-01T21:22:23.009Z,83.97
2019-03-01T21:24:50.676Z,102.10
2019-03-01T21:27:18.424Z,93.80
2019-03-01T21:29:47.614Z,87.00
2019-03-01T21:32:15.530Z,97.47
2019-03-01T21:34:43.164Z,98.50
2019-03-01T21:37:11.038Z,103.67
2019-03-01T21:39:38.900Z,76.00
2019-03-01T21:42:06.769Z,88.47
2019-03-01T21:44:34.541Z,79.87
2019-03-01T21:47:02.286Z,78.07
2019-03-01T21:49:30.372Z,74.70
2019-03-01T21:51:58.146Z,77.93
2019-03-01T21:54:25.901Z,69.37
2019-03-01T21:56:56.804Z,84.00
2019-03-01T21:59:22.955Z,72.93
2019-03-01T22:01:52.637Z,67.67
2019-03-01T22:04:20.124Z,64.07
2019-03-01T22:06:47.905Z,73.83
2019-03-01T22:09:15.569Z,89.67
2019-03-01T22:11:45.766Z,80.30
2019-03-01T22:14:14.265Z,98.60
2019-03-01T22:16:42.353Z,89.83
2019-03-01T22:19:10.012Z,89.73
2019-03-01T22:21:37.776Z,71.47
2019-03-01T22:24:06.215Z,77.67
2019-03-01T22:26:34.038Z,74.27
2019-03-01T22:29:02.001Z,78.97
2019-03-01T22:31:32.526Z,83.87
2019-03-01T22:33:59.153Z,83.87
2019-03-01T22:36:26.942Z,79.23
2019-03-01T22:38:54.704Z,79.40
2019-03-01T22:41:22.399Z,69.33
2019-03-01T22:43:50.113Z,78.40
2019-03-01T22:46:21.071Z,77.03
2019-03-01T22:48:52.986Z,84.40
2019-03-01T22:51:17.960Z,98.77
2019-03-01T22:53:45.901Z,87.57
2019-03-01T22:56:13.770Z,87.50
2019-03-01T22:58:41.543Z,91.93
2019-03-01T23:01:12.517Z,81.90
2019-03-01T23:03:40.353Z,77.17
2019-03-01T23:06:11.628Z,76.03
2019-03-01T23:08:38.035Z,79.40
2019-03-01T23:11:05.889Z,82.40
2019-03-01T23:13:33.673Z,82.13
2019-03-01T23:16:01.432Z,85.87
2019-03-01T23:18:29.296Z,75.07
2019-03-01T23:20:57.616Z,79.77
2019-03-01T23:23:26.365Z,88.10
2019-03-01T23:25:54.128Z,102.10
2019-03-01T23:28:21.901Z,84.50
2019-03-01T23:30:49.768Z,82.80
2019-03-01T23:33:17.456Z,72.30
2019-03-01T23:35:45.299Z,75.53
2019-03-01T23:38:14.895Z,90.73
2019-03-01T23:40:42.462Z,84.47
2019-03-01T23:43:10.336Z,81.10
2019-03-01T23:45:38.084Z,83.70
2019-03-01T23:48:05.881Z,114.33
2019-03-01T23:50:34.912Z,100.23
2019-03-01T23:53:03.053Z,88.07
2019-03-01T23:55:30.797Z,103.00
2019-03-01T23:58:05.775Z,98.57
